createdAt,value
2022-12-07T00:01:39.455Z,29.67
2022-12-07T00:04:09.558Z,28.63
2022-12-07T00:06:38.519Z,28.50
2022-12-07T00:09:07.354Z,30.30
2022-12-07T00:11:34.796Z,31.00
2022-12-07T00:14:05.702Z,29.00
2022-12-07T00:16:34.245Z,29.85
2022-12-07T00:19:02.157Z,30.25
2022-12-07T00:21:31.584Z,29.52
2022-12-07T00:23:59.182Z,29.10
2022-12-07T00:26:38.171Z,32.10
2022-12-07T00:29:12.678Z,27.60
2022-12-07T00:31:40.175Z,30.42
2022-12-07T00:34:12.252Z,29.27
2022-12-07T00:36:39.368Z,28.80
2022-12-07T00:39:06.795Z,30.33
2022-12-07T00:41:33.889Z,29.15
2022-12-07T00:44:01.416Z,28.67
2022-12-07T00:46:28.558Z,30.95
2022-12-07T00:48:55.996Z,30.13
2022-12-07T00:51:25.107Z,28.27
2022-12-07T00:53:53.147Z,27.65
2022-12-07T00:56:23.187Z,28.40
2022-12-07T00:58:59.148Z,27.63
2022-12-07T01:01:29.251Z,27.30
2022-12-07T01:03:57.103Z,27.33
2022-12-07T01:06:25.877Z,28.05
2022-12-07T01:08:53.890Z,26.02
2022-12-07T01:11:27.195Z,27.60
2022-12-07T01:13:56.596Z,27.75
2022-12-07T01:16:26.239Z,28.08
2022-12-07T01:18:55.298Z,27.77
2022-12-07T01:21:38.258Z,27.23
2022-12-07T01:24:08.239Z,25.40
2022-12-07T01:26:35.402Z,27.02
2022-12-07T01:29:03.108Z,26.42
2022-12-07T01:31:30.615Z,24.80
2022-12-07T01:34:00.809Z,27.02
2022-12-07T01:36:33.251Z,29.73
2022-12-07T01:39:03.704Z,23.90
2022-12-07T01:41:33.689Z,25.35
2022-12-07T01:44:21.029Z,25.50
2022-12-07T01:46:59.790Z,25.25
2022-12-07T01:49:47.139Z,25.33
2022-12-07T01:52:23.011Z,24.95
2022-12-07T01:54:55.073Z,27.58
2022-12-07T01:57:22.540Z,24.77
2022-12-07T01:59:52.694Z,24.73
2022-12-07T02:02:23.856Z,26.08
2022-12-07T02:04:54.296Z,26.73
2022-12-07T02:07:22.934Z,25.90
2022-12-07T02:09:50.403Z,24.33
2022-12-07T02:12:17.632Z,25.70
2022-12-07T02:14:45.285Z,26.55
2022-12-07T02:17:21.678Z,26.08
2022-12-07T02:20:03.671Z,25.75
2022-12-07T02:22:57.535Z,26.02
2022-12-07T02:25:33.657Z,24.20
2022-12-07T02:28:32.544Z,23.67
2022-12-07T02:31:09.260Z,24.25
2022-12-07T02:33:47.592Z,24.08
2022-12-07T02:36:42.031Z,21.27
2022-12-07T02:39:24.281Z,22.02
2022-12-07T02:41:56.507Z,23.48
2022-12-07T02:44:27.520Z,23.80
2022-12-07T02:47:05.982Z,22.45
2022-12-07T02:49:33.436Z,22.30
2022-12-07T02:52:01.554Z,23.02
2022-12-07T02:54:28.627Z,24.48
2022-12-07T02:57:14.752Z,23.70
2022-12-07T02:59:50.983Z,22.73
2022-12-07T03:02:27.456Z,24.48
2022-12-07T03:05:12.546Z,24.20
2022-12-07T03:07:58.215Z,25.50
2022-12-07T03:10:34.070Z,25.23
2022-12-07T03:13:17.605Z,26.30
2022-12-07T03:15:55.267Z,24.92
2022-12-07T03:18:26.023Z,25.30
2022-12-07T03:20:58.053Z,25.92
2022-12-07T03:23:28.220Z,26.30
2022-12-07T03:26:00.808Z,26.77
2022-12-07T03:28:34.225Z,26.95
2022-12-07T03:31:11.267Z,25.92
2022-12-07T03:33:48.907Z,26.45
2022-12-07T03:36:45.593Z,26.48
2022-12-07T03:39:32.599Z,26.10
2022-12-07T03:42:01.819Z,26.50
2022-12-07T03:44:30.250Z,27.42
2022-12-07T03:47:12.271Z,26.55
2022-12-07T03:49:45.512Z,30.50
2022-12-07T03:52:24.548Z,26.08
2022-12-07T03:54:59.509Z,26.80
2022-12-07T03:57:28.965Z,29.48
2022-12-07T03:59:58.154Z,27.85
2022-12-07T04:02:27.451Z,28.08
2022-12-07T04:04:56.708Z,25.67
2022-12-07T04:07:23.823Z,27.88
2022-12-07T04:09:51.344Z,25.48
2022-12-07T04:12:18.466Z,26.23
2022-12-07T04:14:45.884Z,26.27
2022-12-07T04:17:13.094Z,26.67
2022-12-07T04:19:40.775Z,25.50
2022-12-07T04:22:08.401Z,26.10
2022-12-07T04:24:36.273Z,27.40
2022-12-07T04:27:03.409Z,25.83
2022-12-07T04:29:30.800Z,27.27
2022-12-07T04:31:57.910Z,29.15
2022-12-07T04:34:25.396Z,31.17
2022-12-07T04:36:52.467Z,37.55
2022-12-07T04:39:28.954Z,34.47
2022-12-07T04:41:57.658Z,33.33
2022-12-07T04:44:26.119Z,29.48
2022-12-07T04:46:54.131Z,33.10
2022-12-07T04:49:22.329Z,29.27
2022-12-07T04:51:49.897Z,27.73
2022-12-07T04:54:17.569Z,25.05
2022-12-07T04:56:45.047Z,26.67
2022-12-07T04:59:13.949Z,31.02
2022-12-07T05:01:41.922Z,28.55
2022-12-07T05:04:09.554Z,28.52
2022-12-07T05:06:37.049Z,23.27
2022-12-07T05:09:05.328Z,24.65
2022-12-07T05:11:41.572Z,22.67
2022-12-07T05:14:21.587Z,21.08
2022-12-07T05:16:51.637Z,22.98
2022-12-07T05:19:20.106Z,22.92
2022-12-07T05:21:48.265Z,22.38
2022-12-07T05:24:17.666Z,20.23
2022-12-07T05:26:46.013Z,21.83
2022-12-07T05:29:15.141Z,19.80
2022-12-07T05:31:42.892Z,20.67
2022-12-07T05:34:10.806Z,18.08
2022-12-07T05:36:38.052Z,21.55
2022-12-07T05:39:05.862Z,19.98
2022-12-07T05:41:51.430Z,18.00
2022-12-07T05:44:19.281Z,17.92
2022-12-07T05:46:46.509Z,18.10
2022-12-07T05:49:13.899Z,18.67
2022-12-07T05:51:41.119Z,16.55
2022-12-07T05:54:08.488Z,17.60
2022-12-07T05:56:35.711Z,18.15
2022-12-07T05:59:21.575Z,18.80
2022-12-07T06:01:48.868Z,18.13
2022-12-07T06:04:16.271Z,18.30
2022-12-07T06:06:43.531Z,21.98
2022-12-07T06:09:11.468Z,20.52
2022-12-07T06:11:57.206Z,18.20
2022-12-07T06:14:24.595Z,18.77
2022-12-07T06:16:52.115Z,17.52
2022-12-07T06:19:19.542Z,18.17
2022-12-07T06:21:46.949Z,17.38
2022-12-07T06:24:16.485Z,16.40
2022-12-07T06:26:44.002Z,17.48
2022-12-07T06:29:12.856Z,17.25
2022-12-07T06:31:40.331Z,17.38
2022-12-07T06:34:12.562Z,17.45
2022-12-07T06:36:40.121Z,20.83
2022-12-07T06:39:10.038Z,18.33
2022-12-07T06:41:40.662Z,31.40
2022-12-07T06:44:08.384Z,34.28
2022-12-07T06:46:36.728Z,18.38
2022-12-07T06:49:05.348Z,19.17
2022-12-07T06:51:33.762Z,32.65
2022-12-07T06:54:01.245Z,31.08
2022-12-07T06:56:29.748Z,18.30
2022-12-07T06:58:57.156Z,37.03
2022-12-07T07:01:24.580Z,32.17
2022-12-07T07:03:52.211Z,30.85
2022-12-07T07:06:19.258Z,19.38
2022-12-07T07:08:46.701Z,50.78
2022-12-07T07:11:13.864Z,27.05
2022-12-07T07:13:41.362Z,38.10
2022-12-07T07:16:09.085Z,24.10
2022-12-07T07:18:36.694Z,24.95
2022-12-07T07:21:06.784Z,24.00
2022-12-07T07:23:34.327Z,39.50
2022-12-07T07:26:01.626Z,36.05
2022-12-07T07:28:28.934Z,28.20
2022-12-07T07:30:56.150Z,21.35
2022-12-07T07:33:23.575Z,20.88
2022-12-07T07:35:50.699Z,19.00
2022-12-07T07:38:18.245Z,20.40
2022-12-07T07:40:46.264Z,16.17
2022-12-07T07:43:13.718Z,18.17
2022-12-07T07:45:41.607Z,16.17
2022-12-07T07:48:09.420Z,19.52
2022-12-07T07:50:36.911Z,18.73
2022-12-07T07:53:04.389Z,18.52
2022-12-07T07:55:31.444Z,15.02
2022-12-07T07:57:58.825Z,14.52
2022-12-07T08:00:26.044Z,15.38
2022-12-07T08:02:53.408Z,15.23
2022-12-07T08:05:20.862Z,13.07
2022-12-07T08:07:48.596Z,14.32
2022-12-07T08:10:15.770Z,15.13
2022-12-07T08:13:02.902Z,13.68
2022-12-07T08:15:31.915Z,12.80
2022-12-07T08:17:59.721Z,16.08
2022-12-07T08:20:27.522Z,16.60
2022-12-07T08:22:54.931Z,13.02
2022-12-07T08:25:23.248Z,14.98
2022-12-07T08:27:52.718Z,12.93
2022-12-07T08:30:20.570Z,14.73
2022-12-07T08:32:49.089Z,15.82
2022-12-07T08:35:16.792Z,17.30
2022-12-07T08:37:44.446Z,21.70
2022-12-07T08:40:16.023Z,16.58
2022-12-07T08:42:45.617Z,15.07
2022-12-07T08:45:15.145Z,14.57
2022-12-07T08:48:05.546Z,12.07
2022-12-07T08:50:33.835Z,14.75
2022-12-07T08:53:01.996Z,13.70
2022-12-07T08:55:30.217Z,12.45
2022-12-07T08:58:00.222Z,14.63
2022-12-07T09:00:28.016Z,13.43
2022-12-07T09:02:55.858Z,12.63
2022-12-07T09:05:24.178Z,11.85
2022-12-07T09:07:55.319Z,19.98
2022-12-07T09:10:22.580Z,18.33
2022-12-07T09:12:50.412Z,41.38
2022-12-07T09:15:17.560Z,19.55
2022-12-07T09:17:45.353Z,28.05
2022-12-07T09:20:13.090Z,28.23
2022-12-07T09:22:40.652Z,34.47
2022-12-07T09:25:08.079Z,20.17
2022-12-07T09:27:35.729Z,31.77
2022-12-07T09:30:03.969Z,17.80
2022-12-07T09:32:31.792Z,13.20
2022-12-07T09:34:59.084Z,20.80
2022-12-07T09:37:26.528Z,19.98
2022-12-07T09:39:53.794Z,16.45
2022-12-07T09:42:40.971Z,10.88
2022-12-07T09:45:22.651Z,23.65
2022-12-07T09:47:50.229Z,12.23
2022-12-07T09:50:22.237Z,12.00
2022-12-07T09:52:51.408Z,15.38
2022-12-07T09:55:27.096Z,15.55
2022-12-07T09:57:55.719Z,20.80
2022-12-07T10:00:24.371Z,43.13
2022-12-07T10:02:58.551Z,42.33
2022-12-07T10:05:32.409Z,13.90
2022-12-07T10:07:59.789Z,19.20
2022-12-07T10:10:36.764Z,27.75
2022-12-07T10:13:34.642Z,57.90
2022-12-07T10:16:06.797Z,62.00
2022-12-07T10:18:42.418Z,25.90
2022-12-07T10:21:10.032Z,38.60
2022-12-07T10:23:39.545Z,32.42
2022-12-07T10:26:28.925Z,21.73
2022-12-07T10:28:57.476Z,22.83
2022-12-07T10:31:24.928Z,26.20
2022-12-07T10:33:56.540Z,21.65
2022-12-07T10:36:33.909Z,21.48
2022-12-07T10:39:03.215Z,24.98
2022-12-07T10:41:30.608Z,25.52
2022-12-07T10:43:59.231Z,27.70
2022-12-07T10:46:51.334Z,21.88
2022-12-07T10:49:48.176Z,44.00
2022-12-07T10:52:18.411Z,21.80
2022-12-07T10:55:07.335Z,22.98
2022-12-07T10:57:40.052Z,15.23
2022-12-07T11:00:14.767Z,14.80
2022-12-07T11:03:00.610Z,16.20
2022-12-07T11:05:45.831Z,15.15
2022-12-07T11:08:34.022Z,16.95
2022-12-07T11:11:10.540Z,14.63
2022-12-07T11:14:26.254Z,15.35
2022-12-07T11:17:07.107Z,13.40
2022-12-07T11:19:52.081Z,13.20
2022-12-07T11:22:47.204Z,13.60
2022-12-07T11:25:35.987Z,14.60
2022-12-07T11:28:33.797Z,14.10
2022-12-07T11:31:36.230Z,12.40
2022-12-07T11:34:24.425Z,12.23
2022-12-07T11:36:55.086Z,13.52
2022-12-07T11:39:38.028Z,13.63
2022-12-07T11:42:07.626Z,12.73
2022-12-07T11:44:52.783Z,16.58
2022-12-07T11:47:56.796Z,16.50
2022-12-07T11:50:42.847Z,14.32
2022-12-07T11:53:09.842Z,13.65
2022-12-07T11:55:58.144Z,14.32
2022-12-07T11:58:34.628Z,11.73
2022-12-07T12:01:43.436Z,12.43
2022-12-07T12:04:10.510Z,12.57
2022-12-07T12:06:46.246Z,12.70
2022-12-07T12:15:37.553Z,12.80
2022-12-07T12:18:07.992Z,16.58
2022-12-07T12:20:46.625Z,13.88
2022-12-07T12:23:17.770Z,16.60
2022-12-07T12:25:50.566Z,15.23
2022-12-07T12:28:33.033Z,16.05
2022-12-07T12:31:14.518Z,16.35
2022-12-07T12:33:51.122Z,15.50
2022-12-07T12:36:21.610Z,15.55
2022-12-07T12:39:07.857Z,16.80
2022-12-07T12:41:50.110Z,15.50
2022-12-07T12:44:20.843Z,17.23
2022-12-07T12:47:02.914Z,14.88
2022-12-07T12:49:30.249Z,16.15
2022-12-07T12:51:59.013Z,15.98
2022-12-07T12:54:29.351Z,15.85
2022-12-07T12:57:20.715Z,16.65
2022-12-07T12:59:54.213Z,16.95
2022-12-07T13:02:30.656Z,15.32
2022-12-07T13:05:25.237Z,16.70
2022-12-07T13:07:58.190Z,15.52
2022-12-07T13:10:26.855Z,16.98
2022-12-07T13:13:05.739Z,17.73
2022-12-07T13:15:43.593Z,17.25
2022-12-07T13:18:28.857Z,16.13
2022-12-07T13:21:03.796Z,16.08
2022-12-07T13:23:38.983Z,15.13
2022-12-07T13:26:31.073Z,16.00
2022-12-07T13:29:10.316Z,15.27
2022-12-07T13:31:41.818Z,15.40
2022-12-07T13:34:37.901Z,16.00
2022-12-07T13:37:38.412Z,9.60
2022-12-07T13:40:23.675Z,14.75
2022-12-07T13:42:59.396Z,14.73
2022-12-07T13:45:47.998Z,15.63
2022-12-07T13:48:28.874Z,14.05
2022-12-07T13:50:58.384Z,17.05
2022-12-07T13:53:31.134Z,16.13
2022-12-07T13:56:00.644Z,17.77
2022-12-07T13:58:32.397Z,19.13
2022-12-07T14:01:00.496Z,24.58
2022-12-07T14:03:32.471Z,23.90
2022-12-07T14:06:18.461Z,22.60
2022-12-07T14:08:47.222Z,19.40
2022-12-07T14:11:19.855Z,20.00
2022-12-07T14:13:58.430Z,20.80
2022-12-07T14:16:35.722Z,20.67
2022-12-07T14:19:27.355Z,22.73
2022-12-07T14:22:20.184Z,23.95
2022-12-07T14:24:48.076Z,21.50
2022-12-07T14:27:26.510Z,23.80
2022-12-07T14:29:53.945Z,24.45
2022-12-07T14:32:30.087Z,24.13
2022-12-07T14:35:17.783Z,28.02
2022-12-07T14:37:47.409Z,45.60
2022-12-07T14:40:24.276Z,41.58
2022-12-07T14:42:58.990Z,39.65
2022-12-07T14:45:26.556Z,58.00
2022-12-07T14:53:47.456Z,25.60
2022-12-07T14:56:17.610Z,32.50
2022-12-07T14:58:44.725Z,65.65
2022-12-07T15:01:12.059Z,21.65
2022-12-07T15:03:39.699Z,19.33
2022-12-07T15:06:07.571Z,19.65
2022-12-07T15:08:35.023Z,19.25
2022-12-07T15:11:02.391Z,21.20
2022-12-07T15:13:48.337Z,27.08
2022-12-07T15:16:22.175Z,23.55
2022-12-07T15:19:25.815Z,25.92
2022-12-07T15:24:03.979Z,21.38
2022-12-07T15:26:31.791Z,21.73
2022-12-07T15:28:58.847Z,20.08
2022-12-07T15:34:13.507Z,21.05
2022-12-07T15:36:40.908Z,18.77
2022-12-07T15:39:15.581Z,19.70
2022-12-07T15:41:43.161Z,19.85
2022-12-07T15:44:33.519Z,18.58
2022-12-07T15:47:01.410Z,18.02
2022-12-07T15:49:29.114Z,61.50
2022-12-07T15:51:56.652Z,24.45
2022-12-07T15:54:26.807Z,17.65
2022-12-07T15:56:55.162Z,24.85
2022-12-07T15:59:22.860Z,41.45
2022-12-07T16:01:50.442Z,18.80
2022-12-07T16:04:17.673Z,19.85
2022-12-07T16:06:45.662Z,18.15
2022-12-07T16:09:13.158Z,18.65
2022-12-07T16:11:40.541Z,18.85
2022-12-07T16:14:07.607Z,17.88
2022-12-07T16:16:35.145Z,20.52
2022-12-07T16:19:02.506Z,18.88
2022-12-07T16:21:29.952Z,17.20
2022-12-07T16:24:00.215Z,15.82
2022-12-07T16:26:27.809Z,21.05
2022-12-07T16:28:56.448Z,26.40
2022-12-07T16:31:26.531Z,19.55
2022-12-07T16:33:55.991Z,47.25
2022-12-07T16:36:55.130Z,20.65
2022-12-07T16:39:12.731Z,51.97
2022-12-07T16:41:40.114Z,35.03
2022-12-07T16:44:08.934Z,23.45
2022-12-07T16:46:37.655Z,20.27
2022-12-07T16:49:05.517Z,17.77
2022-12-07T16:51:35.676Z,19.75
2022-12-07T16:54:02.790Z,24.23
2022-12-07T16:56:30.321Z,16.65
2022-12-07T16:58:59.625Z,15.52
2022-12-07T17:01:29.687Z,16.05
2022-12-07T17:03:58.810Z,16.73
2022-12-07T17:06:28.614Z,17.13
2022-12-07T17:08:57.117Z,14.10
2022-12-07T17:11:28.135Z,15.57
2022-12-07T17:14:14.027Z,19.40
2022-12-07T17:16:41.898Z,18.15
2022-12-07T17:19:11.687Z,16.30
2022-12-07T17:21:39.814Z,17.27
2022-12-07T17:24:09.377Z,17.02
2022-12-07T17:26:37.380Z,20.70
2022-12-07T17:29:06.365Z,16.73
2022-12-07T17:31:33.914Z,18.40
2022-12-07T17:34:01.666Z,19.88
2022-12-07T17:36:31.387Z,21.25
2022-12-07T17:38:58.781Z,21.38
2022-12-07T17:41:49.191Z,18.42
2022-12-07T17:44:19.492Z,19.98
2022-12-07T17:46:49.217Z,18.90
2022-12-07T17:49:16.974Z,18.83
2022-12-07T17:52:02.806Z,19.77
2022-12-07T17:54:30.224Z,20.83
2022-12-07T17:56:58.333Z,21.30
2022-12-07T17:59:25.554Z,21.15
2022-12-07T18:01:53.248Z,22.30
2022-12-07T18:04:20.582Z,20.58
2022-12-07T18:06:52.006Z,20.27
2022-12-07T18:09:20.119Z,21.10
2022-12-07T18:11:47.508Z,23.13
2022-12-07T18:14:14.739Z,22.52
2022-12-07T18:16:42.425Z,21.52
2022-12-07T18:19:13.476Z,21.08
2022-12-07T18:21:41.474Z,23.05
2022-12-07T18:24:10.774Z,22.85
2022-12-07T18:26:39.550Z,23.58
2022-12-07T18:29:08.025Z,22.35
2022-12-07T18:31:37.364Z,19.75
2022-12-07T18:34:14.543Z,19.02
2022-12-07T18:36:47.541Z,21.63
2022-12-07T18:39:16.013Z,20.33
2022-12-07T18:41:44.337Z,22.08
2022-12-07T18:44:13.412Z,20.58
2022-12-07T18:46:42.721Z,20.92
2022-12-07T18:49:14.961Z,20.25
2022-12-07T18:51:42.981Z,20.67
2022-12-07T18:54:10.376Z,22.67
2022-12-07T18:56:38.188Z,20.25
2022-12-07T18:59:25.963Z,20.80
2022-12-07T19:01:55.162Z,21.20
2022-12-07T19:04:22.873Z,44.80
2022-12-07T19:06:51.172Z,67.55
2022-12-07T19:09:19.213Z,28.67
2022-12-07T19:11:50.167Z,53.63
2022-12-07T19:14:28.507Z,42.88
2022-12-07T19:17:04.899Z,22.52
2022-12-07T19:19:42.020Z,22.48
2022-12-07T19:22:11.198Z,38.13
2022-12-07T19:24:39.399Z,40.15
2022-12-07T19:27:08.513Z,53.75
2022-12-07T19:29:35.838Z,33.28
2022-12-07T19:32:05.413Z,38.92
2022-12-07T19:34:32.995Z,31.52
2022-12-07T19:37:00.566Z,30.63
2022-12-07T19:39:27.883Z,30.73
2022-12-07T19:41:55.751Z,33.90
2022-12-07T19:44:27.820Z,28.98
2022-12-07T19:47:04.033Z,26.23
2022-12-07T19:49:34.109Z,26.83
2022-12-07T19:52:04.442Z,28.45
2022-12-07T19:54:33.238Z,24.42
2022-12-07T19:57:00.996Z,43.53
2022-12-07T19:59:30.427Z,24.77
2022-12-07T20:01:58.111Z,32.95
2022-12-07T20:04:28.991Z,25.52
2022-12-07T20:06:59.399Z,35.33
2022-12-07T20:09:27.076Z,27.52
2022-12-07T20:12:13.436Z,26.05
2022-12-07T20:14:40.698Z,21.77
2022-12-07T20:17:08.447Z,25.90
2022-12-07T20:19:37.126Z,43.28
2022-12-07T20:22:05.203Z,24.85
2022-12-07T20:24:34.384Z,20.88
2022-12-07T20:27:03.395Z,21.52
2022-12-07T20:29:30.758Z,30.80
2022-12-07T20:31:58.314Z,40.60
2022-12-07T20:34:26.562Z,37.80
2022-12-07T20:36:54.974Z,24.52
2022-12-07T20:39:23.829Z,23.65
2022-12-07T20:42:10.252Z,21.00
2022-12-07T20:44:37.480Z,23.17
2022-12-07T20:47:06.293Z,25.92
2022-12-07T20:49:33.933Z,26.10
2022-12-07T20:52:01.782Z,27.73
2022-12-07T20:54:28.940Z,22.70
2022-12-07T20:56:56.512Z,23.02
2022-12-07T20:59:23.792Z,22.88
2022-12-07T21:01:51.229Z,22.17
2022-12-07T21:04:18.446Z,20.80
2022-12-07T21:06:46.325Z,20.10
2022-12-07T21:09:13.511Z,23.65
2022-12-07T21:11:41.505Z,20.35
2022-12-07T21:14:09.151Z,21.10
2022-12-07T21:16:36.834Z,22.48
2022-12-07T21:19:06.458Z,20.73
2022-12-07T21:21:34.964Z,24.85
2022-12-07T21:24:04.087Z,20.70
2022-12-07T21:26:34.167Z,23.85
2022-12-07T21:29:02.672Z,18.52
2022-12-07T21:31:30.393Z,21.33
2022-12-07T21:33:57.777Z,19.38
2022-12-07T21:36:26.486Z,27.65
2022-12-07T21:38:53.738Z,17.42
2022-12-07T21:41:24.162Z,20.08
2022-12-07T21:43:51.670Z,19.15
2022-12-07T21:46:20.881Z,18.15
2022-12-07T21:48:53.107Z,18.92
2022-12-07T21:51:22.639Z,18.17
2022-12-07T21:53:54.515Z,19.10
2022-12-07T21:56:25.252Z,20.13
2022-12-07T21:58:54.108Z,19.60
2022-12-07T22:01:24.645Z,18.25
2022-12-07T22:03:52.770Z,19.27
2022-12-07T22:06:22.974Z,19.15
2022-12-07T22:08:52.901Z,20.40
2022-12-07T22:11:20.946Z,19.63
2022-12-07T22:14:10.565Z,12.02
2022-12-07T22:16:39.375Z,17.75
2022-12-07T22:19:08.225Z,15.13
2022-12-07T22:21:36.096Z,15.73
2022-12-07T22:24:04.979Z,14.23
2022-12-07T22:26:32.643Z,14.02
2022-12-07T22:29:01.695Z,13.30
2022-12-07T22:31:29.452Z,13.38
2022-12-07T22:33:56.678Z,12.18
2022-12-07T22:36:24.279Z,11.07
2022-12-07T22:38:51.379Z,11.43
2022-12-07T22:41:24.400Z,10.60
2022-12-07T22:43:52.097Z,10.55
2022-12-07T22:46:19.829Z,9.98
2022-12-07T22:48:47.538Z,9.45
2022-12-07T22:51:33.734Z,9.50
2022-12-07T22:54:03.018Z,7.72
2022-12-07T22:56:32.651Z,8.35
2022-12-07T22:59:00.886Z,9.13
2022-12-07T23:01:28.671Z,8.23
2022-12-07T23:03:56.281Z,7.60
2022-12-07T23:06:29.737Z,8.10
2022-12-07T23:08:58.297Z,8.18
2022-12-07T23:11:48.333Z,6.88
2022-12-07T23:14:19.325Z,7.78
2022-12-07T23:16:47.098Z,8.60
2022-12-07T23:19:14.474Z,8.23
2022-12-07T23:21:42.892Z,8.45
2022-12-07T23:24:12.950Z,8.10
2022-12-07T23:26:45.270Z,7.55
2022-12-07T23:29:17.208Z,7.18
2022-12-07T23:31:46.679Z,7.53
2022-12-07T23:34:13.971Z,7.72
2022-12-07T23:36:41.454Z,7.32
2022-12-07T23:39:10.974Z,6.82
2022-12-07T23:41:39.152Z,7.72
2022-12-07T23:44:06.789Z,8.02
2022-12-07T23:46:34.526Z,8.27
2022-12-07T23:49:04.635Z,8.90
2022-12-07T23:51:33.083Z,8.07
2022-12-07T23:54:04.274Z,9.00
2022-12-07T23:56:33.592Z,9.38
2022-12-07T23:59:02.136Z,9.25
